Time;durP1;ratioP1;P1;durP2;ratioP2;P2;SDS_P1;SDS_P2;PMS_P1;PMS_P2;Temp;Humidity;BMP_temperature;BMP_pressure;BME280_temperature;BME280_humidity;BME280_pressure;Samples;Min_cycle;Max_cycle;Signal;HPM_P1;HPM_P2
2023/06/21 00:00:11;;;;;;;15.35;11.38;;;21.40;99.90;;;;;;5094185;28;20581;-75
2023/06/21 00:02:42;;;;;;;19.40;11.93;;;21.40;99.90;;;;;;5080686;28;20215;-75
2023/06/21 00:05:10;;;;;;;15.25;11.60;;;21.40;99.90;;;;;;5104203;28;20235;-75
2023/06/21 00:07:40;;;;;;;14.18;11.70;;;21.30;99.90;;;;;;5104467;28;20199;-75
2023/06/21 00:10:08;;;;;;;13.13;10.95;;;21.30;99.90;;;;;;5096163;28;20208;-75
2023/06/21 00:12:36;;;;;;;11.45;10.30;;;21.20;99.90;;;;;;5108869;28;20712;-75
2023/06/21 00:15:05;;;;;;;14.52;9.85;;;21.20;99.90;;;;;;5099261;28;20187;-75
2023/06/21 00:17:32;;;;;;;12.27;9.68;;;21.20;99.90;;;;;;5101238;28;20192;-75
2023/06/21 00:20:06;;;;;;;22.13;10.27;;;21.10;99.90;;;;;;5107551;28;20204;-75
2023/06/21 00:22:35;;;;;;;14.20;10.80;;;21.00;99.90;;;;;;5095935;28;20279;-75
2023/06/21 00:25:04;;;;;;;13.88;10.45;;;21.00;99.90;;;;;;5104891;28;20311;-75
2023/06/21 00:27:32;;;;;;;17.35;10.55;;;21.00;99.90;;;;;;5102903;28;20239;-75
2023/06/21 00:30:00;;;;;;;17.73;10.70;;;20.90;99.90;;;;;;5097849;28;20200;-75
2023/06/21 00:32:27;;;;;;;16.92;10.88;;;20.90;99.90;;;;;;5108800;28;20292;-75
2023/06/21 00:34:55;;;;;;;18.02;11.80;;;20.90;99.90;;;;;;5097097;28;20733;-76
2023/06/21 00:37:26;;;;;;;18.60;11.35;;;20.90;99.90;;;;;;5102604;28;20318;-75
2023/06/21 00:39:54;;;;;;;14.38;10.73;;;20.90;99.90;;;;;;5106356;28;20235;-75
2023/06/21 00:42:23;;;;;;;19.52;11.88;;;20.90;99.90;;;;;;5095281;28;20220;-75
2023/06/21 00:44:50;;;;;;;14.48;11.75;;;20.90;99.90;;;;;;5106086;28;20200;-75
2023/06/21 00:47:18;;;;;;;18.27;12.18;;;20.90;99.90;;;;;;5101010;28;20302;-76
2023/06/21 00:49:46;;;;;;;16.05;11.52;;;20.90;99.90;;;;;;5098739;28;20196;-75
2023/06/21 00:52:14;;;;;;;16.45;12.95;;;20.90;99.90;;;;;;5092133;28;20259;-75
2023/06/21 00:54:43;;;;;;;19.90;13.68;;;20.80;99.90;;;;;;5097418;28;20278;-74
2023/06/21 00:57:12;;;;;;;16.02;12.95;;;20.90;99.90;;;;;;5110215;28;20240;-75
2023/06/21 00:59:41;;;;;;;14.35;12.07;;;20.80;99.90;;;;;;5112075;28;20260;-74
2023/06/21 01:02:09;;;;;;;15.18;12.27;;;20.80;99.90;;;;;;5092359;28;20231;-75
2023/06/21 01:04:37;;;;;;;13.35;11.90;;;20.80;99.90;;;;;;5086158;28;20216;-75
2023/06/21 01:07:09;;;;;;;17.27;12.30;;;20.80;99.90;;;;;;5098951;28;20231;-75
2023/06/21 01:09:40;;;;;;;17.27;12.02;;;20.80;99.90;;;;;;5099599;28;20437;-75
2023/06/21 01:12:23;;;;;;;16.45;12.45;;;20.80;99.90;;;;;;5094212;28;20311;-75
2023/06/21 01:14:55;;;;;;;19.48;12.77;;;20.80;99.90;;;;;;5081912;28;20641;-74
2023/06/21 01:17:23;;;;;;;12.68;11.48;;;20.80;99.90;;;;;;5101483;28;20327;-75
2023/06/21 01:19:53;;;;;;;19.40;12.10;;;20.80;99.90;;;;;;5093114;28;20725;-75
2023/06/21 01:22:32;;;;;;;21.17;12.45;;;20.70;99.90;;;;;;5094086;28;20318;-75
2023/06/21 01:25:08;;;;;;;15.93;12.27;;;20.70;99.90;;;;;;5090232;28;20230;-75
2023/06/21 01:27:42;;;;;;;15.43;11.98;;;20.70;99.90;;;;;;5103451;28;20539;-75
2023/06/21 01:30:12;;;;;;;14.10;11.95;;;20.70;99.90;;;;;;5094718;28;20707;-75
2023/06/21 01:32:40;;;;;;;18.33;11.40;;;20.60;99.90;;;;;;5078601;28;20599;-74
2023/06/21 01:35:09;;;;;;;15.75;11.65;;;20.60;99.90;;;;;;5102494;28;20207;-75
2023/06/21 01:37:42;;;;;;;19.02;12.25;;;20.60;99.90;;;;;;5102922;28;20389;-74
2023/06/21 01:40:11;;;;;;;14.43;12.88;;;20.60;99.90;;;;;;5094704;28;20243;-74
2023/06/21 01:42:39;;;;;;;13.70;12.20;;;20.50;99.90;;;;;;5075713;28;20211;-74
2023/06/21 01:45:07;;;;;;;20.48;12.60;;;20.50;99.90;;;;;;5102641;28;20223;-74
2023/06/21 01:47:37;;;;;;;14.80;11.80;;;20.50;99.90;;;;;;5102291;28;20637;-74
2023/06/21 01:50:05;;;;;;;13.40;10.98;;;20.40;99.90;;;;;;5095443;28;20208;-74
2023/06/21 01:52:33;;;;;;;18.17;11.73;;;20.40;99.90;;;;;;5098013;28;20218;-74
2023/06/21 01:55:01;;;;;;;18.00;11.38;;;20.40;99.90;;;;;;5103249;28;20673;-74
2023/06/21 01:57:29;;;;;;;17.38;11.82;;;20.40;99.90;;;;;;5101508;28;20234;-74
2023/06/21 01:59:59;;;;;;;15.55;10.52;;;20.40;99.90;;;;;;5095998;28;20657;-75
2023/06/21 02:02:27;;;;;;;17.33;10.77;;;20.40;99.90;;;;;;5109321;28;20220;-74
2023/06/21 02:04:57;;;;;;;20.80;11.57;;;20.30;99.90;;;;;;5098229;28;20199;-74
2023/06/21 02:07:25;;;;;;;14.82;11.18;;;20.30;99.90;;;;;;5102663;28;20232;-74
2023/06/21 02:09:53;;;;;;;11.70;10.50;;;20.30;99.90;;;;;;5105782;28;20227;-74
2023/06/21 02:12:22;;;;;;;14.43;10.80;;;20.20;99.90;;;;;;5095908;28;20717;-74
2023/06/21 02:14:50;;;;;;;14.95;11.55;;;20.20;99.90;;;;;;5106176;28;20635;-74
2023/06/21 02:17:18;;;;;;;18.40;10.70;;;20.20;99.90;;;;;;5102100;28;20290;-74
2023/06/21 02:19:45;;;;;;;13.10;10.82;;;20.20;99.90;;;;;;5099811;28;20246;-74
2023/06/21 02:22:15;;;;;;;19.20;10.80;;;20.10;99.90;;;;;;5109125;28;20310;-74
2023/06/21 02:24:43;;;;;;;16.17;10.57;;;20.20;99.90;;;;;;5096176;28;20199;-74
2023/06/21 02:27:11;;;;;;;12.43;10.85;;;20.20;99.90;;;;;;5104063;28;20689;-74
2023/06/21 02:29:39;;;;;;;12.75;11.50;;;20.20;99.90;;;;;;5104944;28;20225;-74
2023/06/21 02:32:07;;;;;;;14.15;10.55;;;20.10;99.90;;;;;;5096434;28;20227;-74
2023/06/21 02:34:35;;;;;;;17.80;11.63;;;20.10;99.90;;;;;;5108337;28;20619;-74
2023/06/21 02:37:03;;;;;;;16.70;11.32;;;20.10;99.90;;;;;;5099584;28;20257;-74
2023/06/21 02:39:32;;;;;;;18.55;11.60;;;20.00;99.90;;;;;;5101332;28;20265;-74
2023/06/21 02:42:00;;;;;;;14.52;11.57;;;20.00;99.90;;;;;;5107257;28;20310;-74
2023/06/21 02:44:28;;;;;;;16.15;11.75;;;20.00;99.90;;;;;;5095436;28;20258;-75
2023/06/21 02:46:56;;;;;;;11.63;10.43;;;19.90;99.90;;;;;;5105856;28;20307;-75
2023/06/21 02:49:24;;;;;;;15.88;11.10;;;19.90;99.90;;;;;;5102287;28;20204;-75
2023/06/21 02:51:52;;;;;;;11.98;10.60;;;19.90;99.90;;;;;;5098090;28;20716;-75
2023/06/21 02:54:20;;;;;;;20.58;11.18;;;19.80;99.90;;;;;;5092576;28;20616;-75
2023/06/21 02:56:49;;;;;;;13.73;10.60;;;19.80;99.90;;;;;;5106494;28;20661;-75
2023/06/21 02:59:17;;;;;;;17.33;10.90;;;19.80;99.90;;;;;;5101261;28;20227;-74
2023/06/21 03:01:46;;;;;;;14.05;10.20;;;19.80;99.90;;;;;;5098438;28;20705;-74
2023/06/21 03:04:16;;;;;;;15.30;10.63;;;19.80;99.90;;;;;;5089583;28;20658;-74
2023/06/21 03:06:43;;;;;;;21.23;10.93;;;19.80;99.90;;;;;;5095332;28;20618;-74
2023/06/21 03:09:11;;;;;;;14.75;10.75;;;19.70;99.90;;;;;;5100950;28;20224;-74
2023/06/21 03:11:39;;;;;;;18.02;11.13;;;19.70;99.90;;;;;;5101623;28;20227;-75
2023/06/21 03:14:08;;;;;;;13.82;9.93;;;19.70;99.90;;;;;;5093429;28;20226;-75
2023/06/21 03:16:36;;;;;;;20.08;11.38;;;19.70;99.90;;;;;;5105750;28;20602;-75
2023/06/21 03:19:04;;;;;;;14.15;10.65;;;19.70;99.90;;;;;;5097535;28;20278;-75
2023/06/21 03:21:33;;;;;;;16.55;11.35;;;19.70;99.90;;;;;;5098311;28;20315;-74
2023/06/21 03:24:01;;;;;;;14.80;10.35;;;19.70;99.90;;;;;;5105208;28;20316;-73
2023/06/21 03:26:29;;;;;;;16.20;10.60;;;19.70;99.90;;;;;;5091330;28;20315;-73
2023/06/21 03:28:59;;;;;;;14.05;10.43;;;19.60;99.90;;;;;;5103043;28;20250;-74
2023/06/21 03:31:28;;;;;;;21.30;11.10;;;19.60;99.90;;;;;;5099450;28;20596;-74
2023/06/21 03:33:56;;;;;;;19.63;10.73;;;19.60;99.90;;;;;;5094259;28;20208;-75
2023/06/21 03:36:24;;;;;;;14.57;10.85;;;19.60;99.90;;;;;;5104616;28;20654;-75
2023/06/21 03:38:52;;;;;;;17.40;10.90;;;19.60;99.90;;;;;;5094777;28;20227;-75
2023/06/21 03:41:20;;;;;;;11.50;10.30;;;19.60;99.90;;;;;;5099301;28;20315;-75
2023/06/21 03:43:47;;;;;;;18.90;10.50;;;19.70;99.90;;;;;;5102287;28;20298;-75
2023/06/21 03:46:15;;;;;;;14.10;10.77;;;19.70;99.90;;;;;;5091424;28;20251;-74
2023/06/21 03:48:45;;;;;;;18.77;11.00;;;19.70;99.90;;;;;;5104308;28;20680;-75
2023/06/21 03:51:13;;;;;;;11.32;9.35;;;19.70;99.90;;;;;;5093119;28;20228;-74
2023/06/21 03:53:41;;;;;;;11.43;10.00;;;19.70;99.90;;;;;;5101831;28;20278;-74
2023/06/21 03:56:09;;;;;;;14.52;10.40;;;19.80;99.90;;;;;;5092044;28;20192;-74
2023/06/21 03:58:37;;;;;;;11.23;10.18;;;19.80;99.90;;;;;;5075472;28;20231;-74
2023/06/21 04:01:05;;;;;;;21.40;10.30;;;19.80;99.90;;;;;;5101316;28;20245;-74
2023/06/21 04:03:33;;;;;;;23.50;11.48;;;19.80;99.90;;;;;;5100023;28;20187;-75
2023/06/21 04:06:02;;;;;;;18.88;10.45;;;19.90;99.90;;;;;;5092743;28;20212;-75
2023/06/21 04:08:30;;;;;;;31.55;11.45;;;19.90;99.90;;;;;;5105537;28;20535;-75
2023/06/21 04:10:58;;;;;;;16.02;9.98;;;19.90;99.90;;;;;;5095136;28;20265;-74
2023/06/21 04:13:26;;;;;;;15.32;10.27;;;19.90;99.90;;;;;;5098258;28;20270;-75
2023/06/21 04:15:54;;;;;;;20.00;10.25;;;19.90;99.90;;;;;;5102242;28;20210;-75
2023/06/21 04:18:21;;;;;;;15.52;10.60;;;19.90;99.90;;;;;;5091903;28;20627;-74
2023/06/21 04:20:49;;;;;;;14.18;10.30;;;20.00;99.90;;;;;;5103378;28;20645;-74
2023/06/21 04:23:19;;;;;;;27.55;11.63;;;20.00;99.90;;;;;;5088435;28;20719;-74
2023/06/21 04:25:46;;;;;;;20.92;11.30;;;20.10;99.90;;;;;;5087771;28;20689;-73
2023/06/21 04:28:14;;;;;;;21.00;12.13;;;20.10;99.90;;;;;;5078568;28;20267;-75
2023/06/21 04:30:42;;;;;;;19.60;11.52;;;20.10;99.90;;;;;;5094317;28;20200;-74
2023/06/21 04:33:10;;;;;;;20.85;12.10;;;20.10;99.90;;;;;;5099645;28;20220;-74
2023/06/21 04:35:38;;;;;;;15.10;12.68;;;20.10;99.90;;;;;;5087085;28;20680;-74
2023/06/21 04:38:06;;;;;;;22.33;12.43;;;20.10;99.90;;;;;;5092211;28;20235;-75
2023/06/21 04:40:35;;;;;;;16.38;11.40;;;20.10;99.90;;;;;;5089469;28;20222;-74
2023/06/21 04:43:06;;;;;;;19.77;12.35;;;20.20;99.90;;;;;;5090001;28;20220;-74
2023/06/21 04:45:34;;;;;;;20.55;12.35;;;20.10;99.90;;;;;;5090753;28;20204;-75
2023/06/21 04:48:03;;;;;;;18.35;11.82;;;20.20;99.90;;;;;;5091798;28;20220;-74
2023/06/21 04:50:31;;;;;;;18.27;11.65;;;20.10;99.90;;;;;;5097586;28;20727;-74
2023/06/21 04:52:59;;;;;;;21.52;12.13;;;20.20;99.90;;;;;;5099418;28;20258;-75
2023/06/21 04:55:28;;;;;;;16.48;11.63;;;20.20;99.90;;;;;;5100933;28;20449;-74
2023/06/21 04:57:58;;;;;;;14.02;11.27;;;20.30;99.90;;;;;;5106552;28;20286;-74
2023/06/21 05:00:27;;;;;;;17.52;11.85;;;20.30;99.90;;;;;;5095137;28;20208;-74
2023/06/21 05:02:56;;;;;;;20.65;13.50;;;20.30;99.90;;;;;;5105690;28;20883;-75
2023/06/21 05:05:24;;;;;;;19.60;13.20;;;20.30;99.90;;;;;;5102065;28;20248;-75
2023/06/21 05:08:00;;;;;;;17.42;10.68;;;20.30;99.90;;;;;;5100084;28;20266;-70
2023/06/21 05:10:28;;;;;;;19.38;10.07;;;20.40;99.90;;;;;;5091472;28;20307;-70
2023/06/21 05:13:01;;;;;;;17.63;10.77;;;20.60;99.90;;;;;;5097400;28;20584;-70
2023/06/21 05:15:29;;;;;;;19.33;10.45;;;20.80;99.90;;;;;;5099671;28;20261;-70
2023/06/21 05:17:58;;;;;;;21.40;11.88;;;21.00;99.90;;;;;;5105088;28;20227;-72
2023/06/21 05:20:26;;;;;;;16.63;10.75;;;21.20;99.90;;;;;;5094571;28;20215;-70
2023/06/21 05:22:55;;;;;;;17.85;12.05;;;21.40;99.90;;;;;;5105130;28;20220;-71
2023/06/21 05:25:23;;;;;;;19.35;11.73;;;21.60;99.90;;;;;;5099194;28;20227;-71
2023/06/21 05:27:51;;;;;;;16.52;10.52;;;21.60;99.90;;;;;;5095532;28;20215;-70
2023/06/21 05:30:20;;;;;;;18.83;10.35;;;21.60;99.90;;;;;;5107621;28;20624;-71
2023/06/21 05:32:48;;;;;;;15.10;12.00;;;21.50;99.90;;;;;;5095487;28;20215;-71
2023/06/21 05:35:16;;;;;;;13.43;7.15;;;21.40;99.90;;;;;;5101191;28;20208;-72
2023/06/21 05:37:44;;;;;;;12.35;9.50;;;21.40;99.90;;;;;;5103466;28;20756;-72
2023/06/21 05:40:12;;;;;;;14.73;8.85;;;21.40;99.90;;;;;;5094445;28;20291;-72
2023/06/21 05:42:40;;;;;;;15.55;9.25;;;21.40;99.90;;;;;;5108314;22;20730;-58
2023/06/21 05:45:09;;;;;;;15.95;8.77;;;21.50;99.90;;;;;;5092786;28;20277;-58
2023/06/21 05:47:39;;;;;;;16.25;9.70;;;21.60;99.90;;;;;;5092770;28;20348;-58
2023/06/21 05:50:07;;;;;;;11.73;10.52;;;21.60;99.90;;;;;;5093250;28;20257;-58
2023/06/21 05:52:35;;;;;;;13.80;10.52;;;21.70;99.90;;;;;;5081069;28;20200;-58
2023/06/21 05:55:03;;;;;;;14.60;10.80;;;21.60;99.90;;;;;;5093095;28;20227;-58
2023/06/21 05:57:31;;;;;;;11.48;9.02;;;21.50;99.90;;;;;;5093247;28;20283;-58
2023/06/21 05:59:59;;;;;;;14.52;9.68;;;21.60;99.90;;;;;;5084334;28;20207;-58
2023/06/21 06:02:27;;;;;;;12.95;10.30;;;21.60;99.90;;;;;;5077855;28;20688;-58
2023/06/21 06:04:56;;;;;;;13.25;8.60;;;21.60;99.90;;;;;;5077469;28;20251;-58
2023/06/21 06:07:24;;;;;;;12.63;9.35;;;21.70;99.90;;;;;;5088943;28;20320;-58
2023/06/21 06:09:52;;;;;;;12.80;8.88;;;21.80;99.90;;;;;;5092694;28;20204;-58
2023/06/21 06:12:21;;;;;;;13.48;10.18;;;21.80;99.90;;;;;;5092801;28;20284;-58
2023/06/21 06:14:51;;;;;;;15.40;11.65;;;21.80;99.90;;;;;;5092624;28;20200;-59
2023/06/21 06:17:19;;;;;;;15.95;9.68;;;21.80;99.90;;;;;;5092971;28;20214;-57
2023/06/21 06:19:47;;;;;;;11.73;8.85;;;21.80;99.90;;;;;;5092696;28;20203;-59
2023/06/21 06:22:17;;;;;;;10.35;8.95;;;21.80;99.90;;;;;;5092609;28;20238;-58
2023/06/21 06:24:46;;;;;;;13.32;9.35;;;21.90;99.90;;;;;;5091996;28;20207;-59
2023/06/21 06:27:14;;;;;;;13.35;10.25;;;21.90;99.90;;;;;;5092779;28;20291;-58
2023/06/21 06:29:42;;;;;;;13.23;8.73;;;22.00;99.90;;;;;;5092653;28;20200;-59
2023/06/21 06:32:10;;;;;;;15.30;9.30;;;22.00;99.90;;;;;;5092437;28;20208;-58
2023/06/21 06:34:38;;;;;;;10.80;8.85;;;22.00;99.90;;;;;;5058888;28;20677;-58
2023/06/21 06:37:06;;;;;;;11.80;8.13;;;22.00;99.90;;;;;;5096190;22;20242;-60
2023/06/21 06:39:44;;;;;;;9.60;8.60;;;22.00;99.90;;;;;;5077843;28;20231;-60
2023/06/21 06:42:12;;;;;;;12.18;9.50;;;22.00;99.90;;;;;;5081646;28;20210;-61
2023/06/21 06:44:40;;;;;;;12.57;9.07;;;22.00;99.90;;;;;;5088233;28;20641;-61
2023/06/21 06:47:08;;;;;;;13.07;8.00;;;22.00;99.90;;;;;;5079733;28;20254;-62
2023/06/21 06:49:36;;;;;;;10.73;8.60;;;22.00;99.90;;;;;;5080125;28;20255;-61
2023/06/21 06:52:05;;;;;;;14.07;8.60;;;22.00;99.90;;;;;;5076134;28;20604;-61
2023/06/21 06:54:33;;;;;;;15.07;9.95;;;22.10;99.90;;;;;;5088632;28;20196;-61
2023/06/21 06:57:02;;;;;;;15.25;9.00;;;22.10;99.90;;;;;;5078677;28;20216;-61
2023/06/21 06:59:30;;;;;;;17.98;9.75;;;22.00;99.90;;;;;;5080736;28;20203;-61
2023/06/21 07:01:59;;;;;;;10.45;8.75;;;22.00;99.90;;;;;;5086654;28;20208;-63
2023/06/21 07:04:28;;;;;;;8.80;7.82;;;22.00;99.90;;;;;;5072834;28;20254;-62
2023/06/21 07:06:58;;;;;;;11.05;7.88;;;21.90;99.90;;;;;;5084870;28;20224;-62
2023/06/21 07:09:26;;;;;;;15.02;8.30;;;21.90;99.90;;;;;;5082103;28;20224;-62
2023/06/21 07:11:59;;;;;;;11.88;8.32;;;21.90;99.90;;;;;;5077740;28;20197;-62
2023/06/21 07:14:28;;;;;;;14.10;8.98;;;21.90;99.90;;;;;;5088359;28;20204;-62
2023/06/21 07:16:56;;;;;;;11.35;8.93;;;22.00;99.90;;;;;;5077396;28;20718;-62
2023/06/21 07:19:24;;;;;;;18.40;8.40;;;22.10;99.90;;;;;;5081766;28;20207;-62
2023/06/21 07:21:52;;;;;;;14.55;9.25;;;22.20;99.90;;;;;;5085766;28;20208;-62
2023/06/21 07:24:20;;;;;;;17.65;8.85;;;22.30;99.90;;;;;;5075046;28;20208;-62
2023/06/21 07:26:47;;;;;;;13.77;9.38;;;22.50;99.90;;;;;;5086780;28;20217;-63
2023/06/21 07:29:15;;;;;;;10.98;8.43;;;22.50;99.90;;;;;;5080258;28;20216;-62
2023/06/21 07:31:45;;;;;;;17.98;10.02;;;22.50;99.90;;;;;;5079200;28;20262;-63
2023/06/21 07:34:13;;;;;;;13.43;9.88;;;22.40;99.90;;;;;;5088323;28;20235;-61
2023/06/21 07:36:41;;;;;;;14.93;9.65;;;22.30;99.90;;;;;;5075351;28;20234;-60
2023/06/21 07:39:09;;;;;;;15.65;10.15;;;22.30;99.90;;;;;;5083747;28;20193;-63
2023/06/21 07:41:37;;;;;;;13.07;9.35;;;22.40;99.90;;;;;;5083573;28;20200;-61
2023/06/21 07:44:05;;;;;;;12.68;9.18;;;22.50;99.90;;;;;;5075254;28;20660;-61
2023/06/21 07:46:33;;;;;;;14.20;9.15;;;22.50;99.90;;;;;;5087905;28;20282;-60
2023/06/21 07:49:03;;;;;;;11.60;9.32;;;22.70;99.90;;;;;;5077285;28;20227;-62
2023/06/21 07:51:31;;;;;;;15.60;10.15;;;22.80;99.90;;;;;;5075438;28;20288;-62
2023/06/21 07:53:58;;;;;;;11.55;8.93;;;23.00;99.90;;;;;;5080778;28;20283;-62
2023/06/21 07:56:27;;;;;;;14.23;9.35;;;23.20;99.90;;;;;;5074156;28;20225;-62
2023/06/21 07:58:55;;;;;;;12.02;9.75;;;23.40;99.90;;;;;;5085479;28;20193;-63
2023/06/21 08:01:23;;;;;;;15.15;9.50;;;23.60;99.90;;;;;;5081255;28;20208;-63
2023/06/21 08:03:50;;;;;;;16.75;8.60;;;23.70;99.90;;;;;;5077590;28;20270;-61
2023/06/21 08:06:20;;;;;;;11.18;8.93;;;23.70;99.90;;;;;;5087353;28;20235;-63
2023/06/21 08:08:48;;;;;;;10.85;9.07;;;23.70;99.90;;;;;;5075735;28;20247;-63
2023/06/21 08:11:15;;;;;;;16.58;9.50;;;23.70;99.90;;;;;;5081991;28;20270;-62
2023/06/21 08:13:43;;;;;;;13.45;9.23;;;23.70;99.90;;;;;;5075159;28;20711;-63
2023/06/21 08:16:11;;;;;;;18.17;9.77;;;23.80;99.90;;;;;;5091452;28;20224;-63
2023/06/21 08:18:39;;;;;;;12.38;9.43;;;23.70;99.90;;;;;;5061761;28;20647;-62
2023/06/21 08:21:08;;;;;;;12.80;10.05;;;23.80;99.90;;;;;;5086970;28;20200;-62
2023/06/21 08:23:37;;;;;;;11.80;8.90;;;23.90;99.90;;;;;;5085418;28;20200;-63
2023/06/21 08:26:05;;;;;;;17.67;9.43;;;24.00;99.90;;;;;;5077807;28;20301;-62
2023/06/21 08:28:33;;;;;;;15.65;9.15;;;24.10;99.90;;;;;;5091694;28;20312;-62
2023/06/21 08:31:01;;;;;;;15.80;8.80;;;24.20;99.90;;;;;;5080774;28;20196;-62
2023/06/21 08:33:28;;;;;;;10.52;9.43;;;24.20;99.90;;;;;;5083287;28;20266;-61
2023/06/21 08:35:56;;;;;;;12.85;9.02;;;24.30;99.90;;;;;;5088842;28;20265;-63
2023/06/21 08:38:24;;;;;;;12.68;9.55;;;24.30;99.90;;;;;;5078207;28;20737;-63
2023/06/21 08:40:59;;;;;;;11.48;9.07;;;24.40;99.90;;;;;;5088981;28;20197;-62
2023/06/21 08:43:27;;;;;;;13.13;9.30;;;24.40;99.90;;;;;;5085381;28;20317;-61
2023/06/21 08:45:55;;;;;;;11.32;9.15;;;24.40;99.90;;;;;;5080092;28;20220;-62
2023/06/21 08:48:23;;;;;;;11.38;9.15;;;24.50;99.90;;;;;;5090502;28;20242;-62
2023/06/21 08:50:51;;;;;;;9.90;8.77;;;24.60;99.90;;;;;;5074165;28;20249;-63
2023/06/21 08:53:23;;;;;;;12.95;10.15;;;24.70;99.90;;;;;;5072572;28;20205;-62
2023/06/21 08:55:51;;;;;;;12.45;8.60;;;24.70;99.90;;;;;;5073971;28;20350;-63
2023/06/21 08:58:22;;;;;;;13.10;9.10;;;24.70;99.90;;;;;;5076552;28;20201;-63
2023/06/21 09:00:53;;;;;;;12.05;8.93;;;24.70;99.90;;;;;;5089056;28;20193;-62
2023/06/21 09:03:24;;;;;;;14.18;8.45;;;24.70;99.90;;;;;;5080721;28;20223;-63
2023/06/21 09:05:58;;;;;;;9.27;8.52;;;24.80;99.90;;;;;;5075556;28;20653;-62
2023/06/21 09:08:26;;;;;;;11.38;8.85;;;24.70;99.90;;;;;;5075155;28;20204;-63
2023/06/21 09:10:54;;;;;;;11.77;7.53;;;24.70;99.90;;;;;;5071977;28;20273;-62
2023/06/21 09:13:24;;;;;;;10.27;8.00;;;24.80;99.90;;;;;;5073587;28;20209;-61
2023/06/21 09:15:52;;;;;;;9.52;7.28;;;25.00;99.90;;;;;;5073379;28;20220;-62
2023/06/21 09:18:20;;;;;;;11.23;8.15;;;25.20;99.90;;;;;;5075238;28;20208;-62
2023/06/21 09:20:49;;;;;;;7.80;7.07;;;25.40;99.90;;;;;;5075194;28;20647;-62
2023/06/21 09:23:17;;;;;;;10.35;6.35;;;25.60;99.90;;;;;;5072582;28;20229;-63
2023/06/21 09:25:45;;;;;;;7.72;6.45;;;25.80;99.90;;;;;;5080624;28;20220;-63
2023/06/21 09:28:13;;;;;;;7.20;5.55;;;26.00;99.90;;;;;;5076196;28;20200;-63
2023/06/21 09:30:42;;;;;;;5.75;5.13;;;26.10;99.90;;;;;;5074545;28;20296;-63
2023/06/21 09:33:11;;;;;;;6.25;5.60;;;26.20;99.90;;;;;;5076827;28;20208;-62
2023/06/21 09:35:39;;;;;;;6.60;6.05;;;26.30;99.90;;;;;;5085341;28;20262;-62
2023/06/21 09:38:22;;;;;;;6.75;5.97;;;26.40;99.90;;;;;;5077981;28;20228;-62
2023/06/21 09:40:50;;;;;;;10.63;6.57;;;26.50;99.90;;;;;;5064117;28;20252;-63
2023/06/21 09:43:19;;;;;;;6.45;5.72;;;26.60;99.90;;;;;;5084681;28;20201;-62
2023/06/21 09:46:00;;;;;;;6.78;6.18;;;26.70;99.90;;;;;;5086590;28;20265;-61
2023/06/21 09:48:28;;;;;;;5.60;4.97;;;26.80;99.90;;;;;;5076728;28;20266;-63
2023/06/21 09:50:56;;;;;;;6.85;5.22;;;26.90;99.90;;;;;;5087125;28;20217;-62
2023/06/21 09:53:24;;;;;;;4.78;4.38;;;27.00;99.90;;;;;;5073334;28;20201;-62
2023/06/21 09:55:52;;;;;;;5.25;4.75;;;26.90;99.90;;;;;;5082181;28;20224;-61
2023/06/21 09:58:20;;;;;;;8.27;5.32;;;26.80;99.90;;;;;;5074647;28;20209;-62
2023/06/21 10:00:48;;;;;;;9.33;5.13;;;26.80;99.90;;;;;;5063611;28;20133;-63
2023/06/21 10:03:20;;;;;;;5.70;5.22;;;26.90;99.90;;;;;;5082114;28;20207;-64
2023/06/21 10:05:55;;;;;;;6.70;4.50;;;27.10;99.90;;;;;;5079035;28;20225;-62
2023/06/21 10:08:24;;;;;;;5.18;4.78;;;27.20;99.90;;;;;;5089913;28;20250;-63
2023/06/21 10:10:52;;;;;;;6.93;4.47;;;27.30;99.90;;;;;;5078641;28;20216;-63
2023/06/21 10:13:27;;;;;;;10.27;4.50;;;27.30;99.90;;;;;;5083465;28;20232;-62
2023/06/21 10:15:55;;;;;;;4.97;4.50;;;27.40;99.90;;;;;;5086747;28;20436;-63
2023/06/21 10:18:25;;;;;;;5.43;4.82;;;27.40;99.90;;;;;;5076492;28;20207;-62
2023/06/21 10:20:55;;;;;;;5.45;5.00;;;27.40;99.90;;;;;;5086911;28;20200;-63
2023/06/21 10:23:23;;;;;;;5.53;5.13;;;27.50;99.90;;;;;;5072087;28;20209;-62
2023/06/21 10:25:52;;;;;;;10.48;5.63;;;27.60;99.90;;;;;;5075411;28;20256;-64
2023/06/21 10:28:20;;;;;;;5.63;4.85;;;27.80;99.90;;;;;;5075916;28;20209;-62
2023/06/21 10:30:48;;;;;;;6.13;5.60;;;27.90;99.90;;;;;;5072476;28;20256;-63
2023/06/21 10:33:17;;;;;;;6.55;6.00;;;27.90;99.90;;;;;;5075433;28;20228;-63
2023/06/21 10:35:48;;;;;;;6.20;5.70;;;27.80;99.90;;;;;;5084499;28;20275;-64
2023/06/21 10:38:21;;;;;;;6.93;6.32;;;27.70;99.90;;;;;;5075528;28;20561;-62
2023/06/21 10:40:50;;;;;;;6.68;6.10;;;27.50;99.90;;;;;;5076659;28;20235;-61
2023/06/21 10:43:18;;;;;;;6.47;5.88;;;27.40;99.90;;;;;;5075392;28;20227;-62
2023/06/21 10:45:46;;;;;;;6.22;5.53;;;27.30;99.90;;;;;;5071748;28;20304;-63
2023/06/21 10:48:14;;;;;;;6.53;5.82;;;27.30;99.90;;;;;;5089105;28;20287;-63
2023/06/21 10:50:42;;;;;;;9.43;5.60;;;27.30;99.90;;;;;;5073917;28;20212;-62
2023/06/21 10:53:13;;;;;;;6.57;6.00;;;27.40;99.90;;;;;;5080145;28;20261;-62
2023/06/21 10:55:41;;;;;;;6.90;5.88;;;27.60;99.90;;;;;;5079410;28;20236;-62
2023/06/21 10:58:09;;;;;;;5.97;5.47;;;27.70;99.90;;;;;;5069313;28;20230;-62
2023/06/21 11:00:37;;;;;;;6.00;5.50;;;27.90;99.90;;;;;;5071632;28;20671;-62
2023/06/21 11:03:05;;;;;;;6.63;5.38;;;28.00;99.90;;;;;;5077892;28;20238;-62
2023/06/21 11:05:33;;;;;;;7.35;5.60;;;28.30;99.90;;;;;;5083029;28;20251;-61
2023/06/21 11:08:04;;;;;;;5.90;5.40;;;28.40;99.90;;;;;;5076344;28;20200;-62
2023/06/21 11:10:38;;;;;;;5.50;5.00;;;28.40;99.90;;;;;;5088724;28;20235;-63
2023/06/21 11:13:06;;;;;;;5.18;4.78;;;28.40;99.90;;;;;;5079205;28;20199;-63
2023/06/21 11:15:34;;;;;;;5.65;5.18;;;28.60;99.90;;;;;;5080208;28;20220;-62
2023/06/21 11:18:03;;;;;;;5.30;4.80;;;28.60;99.90;;;;;;5087306;28;20208;-62
2023/06/21 11:20:32;;;;;;;5.53;5.13;;;28.70;99.90;;;;;;5074931;28;20197;-63
2023/06/21 11:23:01;;;;;;;5.25;4.78;;;28.70;99.90;;;;;;5085119;28;20656;-63
2023/06/21 11:25:29;;;;;;;5.97;5.47;;;29.00;99.90;;;;;;5082253;28;20495;-63
2023/06/21 11:28:24;;;;;;;5.43;5.03;;;29.20;99.90;;;;;;5077248;28;20733;-63
2023/06/21 11:31:08;;;;;;;5.65;5.25;;;29.50;99.90;;;;;;5062518;28;20704;-61
2023/06/21 11:33:48;;;;;;;7.07;5.47;;;29.80;99.90;;;;;;5080121;28;20232;-63
2023/06/21 11:36:17;;;;;;;7.63;4.90;;;30.30;99.90;;;;;;5087813;28;20262;-63
2023/06/21 11:38:49;;;;;;;6.70;5.00;;;30.80;99.90;;;;;;5076291;28;20199;-63
2023/06/21 11:41:58;;;;;;;6.20;5.20;;;31.10;99.90;;;;;;5082564;28;20200;-62
2023/06/21 11:44:28;;;;;;;5.55;5.15;;;31.10;99.90;;;;;;5025102;28;20241;-62
2023/06/21 11:47:17;;;;;;;5.28;4.88;;;31.10;99.90;;;;;;5014499;28;20222;-63
2023/06/21 11:50:01;;;;;;;6.68;4.68;;;30.90;99.90;;;;;;5057314;28;20223;-61
2023/06/21 11:52:32;;;;;;;5.68;5.18;;;30.60;99.90;;;;;;5078208;28;20220;-63
2023/06/21 11:55:14;;;;;;;6.10;5.45;;;30.60;99.90;;;;;;5079346;28;20729;-64
2023/06/21 11:57:48;;;;;;;5.80;5.20;;;30.70;99.90;;;;;;5079107;28;20201;-63
2023/06/21 12:00:17;;;;;;;5.70;5.20;;;30.50;99.90;;;;;;5087747;28;20219;-63
2023/06/21 12:02:45;;;;;;;5.38;4.97;;;30.30;99.90;;;;;;5076280;28;20742;-63
2023/06/21 12:05:15;;;;;;;5.47;5.05;;;30.20;99.90;;;;;;5082648;28;20254;-62
2023/06/21 12:07:44;;;;;;;5.50;5.10;;;30.50;99.90;;;;;;5084235;28;20195;-63
2023/06/21 12:10:12;;;;;;;5.28;4.70;;;30.90;99.90;;;;;;5074284;28;20204;-63
2023/06/21 12:12:40;;;;;;;5.65;4.95;;;31.30;99.90;;;;;;5087261;28;20203;-64
2023/06/21 12:15:08;;;;;;;5.07;4.68;;;31.70;99.90;;;;;;5078970;28;20196;-63
2023/06/21 12:17:37;;;;;;;5.43;5.03;;;32.10;99.90;;;;;;5079704;28;20255;-62
2023/06/21 12:20:07;;;;;;;5.65;5.15;;;32.30;99.90;;;;;;5087117;28;20413;-62
2023/06/21 12:22:36;;;;;;;5.43;5.03;;;32.70;99.90;;;;;;5074625;28;20192;-63
2023/06/21 12:25:04;;;;;;;5.13;4.82;;;32.80;99.90;;;;;;5083565;28;20246;-64
2023/06/21 12:27:32;;;;;;;5.55;5.07;;;32.80;99.90;;;;;;5082567;28;20235;-63
2023/06/21 12:30:00;;;;;;;5.53;5.03;;;33.10;99.90;;;;;;5076068;28;20200;-63
2023/06/21 12:32:28;;;;;;;5.40;4.93;;;33.00;99.90;;;;;;5087765;28;20227;-62
2023/06/21 12:35:03;;;;;;;6.20;5.68;;;32.70;99.90;;;;;;5075767;28;20653;-63
2023/06/21 12:37:31;;;;;;;6.22;4.95;;;32.70;99.90;;;;;;5089837;22;20246;-74
2023/06/21 12:39:59;;;;;;;5.65;5.18;;;32.80;99.90;;;;;;5073280;28;20270;-74
2023/06/21 12:42:29;;;;;;;5.65;5.22;;;33.20;99.90;;;;;;5084702;28;20303;-73
2023/06/21 12:44:57;;;;;;;5.30;5.00;;;33.40;99.90;;;;;;5073625;28;20188;-73